sensor_id;sensor_type;location;lat;lon;timestamp;pressure;altitude;pressure_sealevel;temperature;humidity
77893;BME280;67087;50.094;14.338;2023-06-01T00:00:59;98279.58;;;25.84;25.17
77893;BME280;67087;50.094;14.338;2023-06-01T00:03:24;98276.65;;;26.12;25.15
77893;BME280;67087;50.094;14.338;2023-06-01T00:05:50;98278.06;;;25.84;25.13
77893;BME280;67087;50.094;14.338;2023-06-01T00:08:15;98278.41;;;25.84;25.00
77893;BME280;67087;50.094;14.338;2023-06-01T00:10:40;98279.20;;;25.95;25.15
77893;BME280;67087;50.094;14.338;2023-06-01T00:13:05;98276.13;;;26.00;24.90
77893;BME280;67087;50.094;14.338;2023-06-01T00:15:30;98272.67;;;25.98;24.86
77893;BME280;67087;50.094;14.338;2023-06-01T00:17:55;98271.20;;;26.24;24.89
77893;BME280;67087;50.094;14.338;2023-06-01T00:20:20;98270.11;;;26.24;24.88
77893;BME280;67087;50.094;14.338;2023-06-01T00:22:46;98268.29;;;25.99;25.09
77893;BME280;67087;50.094;14.338;2023-06-01T00:25:11;98270.97;;;26.09;24.91
77893;BME280;67087;50.094;14.338;2023-06-01T00:27:36;98270.60;;;25.50;25.09
77893;BME280;67087;50.094;14.338;2023-06-01T00:30:01;98270.41;;;26.22;25.19
77893;BME280;67087;50.094;14.338;2023-06-01T00:32:26;98267.12;;;26.19;25.14
77893;BME280;67087;50.094;14.338;2023-06-01T00:34:51;98268.95;;;25.80;25.17
77893;BME280;67087;50.094;14.338;2023-06-01T00:37:16;98265.79;;;25.96;25.19
77893;BME280;67087;50.094;14.338;2023-06-01T00:39:42;98264.24;;;25.85;24.94
77893;BME280;67087;50.094;14.338;2023-06-01T00:42:07;98259.76;;;25.89;25.02
77893;BME280;67087;50.094;14.338;2023-06-01T00:44:32;98259.65;;;26.14;25.14
77893;BME280;67087;50.094;14.338;2023-06-01T00:46:57;98258.65;;;25.81;25.25
77893;BME280;67087;50.094;14.338;2023-06-01T00:49:22;98259.49;;;25.95;25.11
77893;BME280;67087;50.094;14.338;2023-06-01T00:51:47;98255.64;;;25.92;24.86
77893;BME280;67087;50.094;14.338;2023-06-01T00:54:12;98255.30;;;26.07;25.13
77893;BME280;67087;50.094;14.338;2023-06-01T00:56:38;98257.56;;;25.43;25.04
77893;BME280;67087;50.094;14.338;2023-06-01T00:59:03;98256.27;;;25.97;24.96
77893;BME280;67087;50.094;14.338;2023-06-01T01:01:28;98256.89;;;25.84;25.26
77893;BME280;67087;50.094;14.338;2023-06-01T01:03:53;98257.38;;;25.83;25.27
77893;BME280;67087;50.094;14.338;2023-06-01T01:06:24;98256.01;;;25.92;25.13
77893;BME280;67087;50.094;14.338;2023-06-01T01:08:51;98254.27;;;25.83;25.00
77893;BME280;67087;50.094;14.338;2023-06-01T01:11:15;98254.33;;;26.06;25.25
77893;BME280;67087;50.094;14.338;2023-06-01T01:13:38;98253.74;;;26.09;25.31
77893;BME280;67087;50.094;14.338;2023-06-01T01:16:02;98255.86;;;25.76;25.39
77893;BME280;67087;50.094;14.338;2023-06-01T01:18:28;98251.49;;;25.94;25.27
77893;BME280;67087;50.094;14.338;2023-06-01T01:20:53;98250.87;;;25.71;25.43
77893;BME280;67087;50.094;14.338;2023-06-01T01:23:24;98251.18;;;25.93;25.39
77893;BME280;67087;50.094;14.338;2023-06-01T01:30:30;98250.70;;;25.78;25.36
77893;BME280;67087;50.094;14.338;2023-06-01T01:32:56;98253.17;;;25.72;25.21
77893;BME280;67087;50.094;14.338;2023-06-01T01:35:20;98253.76;;;26.07;25.27
77893;BME280;67087;50.094;14.338;2023-06-01T01:37:50;98251.88;;;25.88;25.49
77893;BME280;67087;50.094;14.338;2023-06-01T01:40:11;98250.85;;;25.55;25.56
77893;BME280;67087;50.094;14.338;2023-06-01T01:42:36;98251.32;;;25.66;25.33
77893;BME280;67087;50.094;14.338;2023-06-01T01:45:00;98246.10;;;25.67;25.31
77893;BME280;67087;50.094;14.338;2023-06-01T01:47:31;98247.11;;;25.69;25.20
77893;BME280;67087;50.094;14.338;2023-06-01T01:49:55;98247.69;;;25.67;25.34
77893;BME280;67087;50.094;14.338;2023-06-01T01:52:18;98246.50;;;25.63;25.42
77893;BME280;67087;50.094;14.338;2023-06-01T01:54:42;98246.27;;;25.38;25.42
77893;BME280;67087;50.094;14.338;2023-06-01T01:57:08;98244.58;;;26.01;25.22
77893;BME280;67087;50.094;14.338;2023-06-01T01:59:31;98238.96;;;25.89;25.23
77893;BME280;67087;50.094;14.338;2023-06-01T02:01:56;98237.02;;;25.66;25.16
77893;BME280;67087;50.094;14.338;2023-06-01T02:04:21;98235.99;;;25.97;25.32
77893;BME280;67087;50.094;14.338;2023-06-01T02:06:47;98233.05;;;25.38;25.33
77893;BME280;67087;50.094;14.338;2023-06-01T02:09:12;98231.71;;;26.29;25.25
77893;BME280;67087;50.094;14.338;2023-06-01T02:11:38;98232.36;;;25.77;25.36
77893;BME280;67087;50.094;14.338;2023-06-01T02:14:03;98231.56;;;25.73;25.30
77893;BME280;67087;50.094;14.338;2023-06-01T02:16:27;98231.48;;;25.80;25.42
77893;BME280;67087;50.094;14.338;2023-06-01T02:18:52;98231.02;;;25.61;25.34
77893;BME280;67087;50.094;14.338;2023-06-01T02:21:18;98227.92;;;26.00;25.13
77893;BME280;67087;50.094;14.338;2023-06-01T02:23:42;98226.99;;;25.63;25.34
77893;BME280;67087;50.094;14.338;2023-06-01T02:26:08;98225.46;;;25.59;25.40
77893;BME280;67087;50.094;14.338;2023-06-01T02:28:33;98228.33;;;25.66;25.09
77893;BME280;67087;50.094;14.338;2023-06-01T02:30:58;98227.80;;;25.56;25.34
77893;BME280;67087;50.094;14.338;2023-06-01T02:33:23;98225.83;;;25.57;25.29
77893;BME280;67087;50.094;14.338;2023-06-01T02:35:48;98224.45;;;25.35;25.29
77893;BME280;67087;50.094;14.338;2023-06-01T02:38:13;98225.71;;;25.80;25.30
77893;BME280;67087;50.094;14.338;2023-06-01T02:40:39;98225.76;;;25.18;25.19
77893;BME280;67087;50.094;14.338;2023-06-01T02:43:04;98224.97;;;25.78;25.31
77893;BME280;67087;50.094;14.338;2023-06-01T02:45:29;98227.25;;;25.49;25.23
77893;BME280;67087;50.094;14.338;2023-06-01T02:47:54;98225.00;;;25.84;25.32
77893;BME280;67087;50.094;14.338;2023-06-01T02:50:19;98226.09;;;25.56;25.34
77893;BME280;67087;50.094;14.338;2023-06-01T02:52:44;98223.46;;;25.48;25.49
77893;BME280;67087;50.094;14.338;2023-06-01T02:55:09;98224.62;;;25.50;25.45
77893;BME280;67087;50.094;14.338;2023-06-01T02:57:35;98224.32;;;25.81;25.21
77893;BME280;67087;50.094;14.338;2023-06-01T02:59:59;98225.50;;;25.80;25.28
77893;BME280;67087;50.094;14.338;2023-06-01T03:02:25;98220.45;;;25.67;25.20
77893;BME280;67087;50.094;14.338;2023-06-01T03:04:50;98219.98;;;25.70;25.20
77893;BME280;67087;50.094;14.338;2023-06-01T03:07:15;98217.51;;;25.51;25.29
77893;BME280;67087;50.094;14.338;2023-06-01T03:09:40;98215.22;;;25.04;25.17
77893;BME280;67087;50.094;14.338;2023-06-01T03:12:06;98213.05;;;25.90;25.17
77893;BME280;67087;50.094;14.338;2023-06-01T03:14:30;98215.11;;;25.67;25.35
77893;BME280;67087;50.094;14.338;2023-06-01T03:16:55;98215.25;;;25.45;25.42
77893;BME280;67087;50.094;14.338;2023-06-01T03:19:21;98212.92;;;25.51;25.35
77893;BME280;67087;50.094;14.338;2023-06-01T03:21:46;98211.08;;;25.30;25.57
77893;BME280;67087;50.094;14.338;2023-06-01T03:24:11;98211.07;;;25.38;25.51
77893;BME280;67087;50.094;14.338;2023-06-01T03:26:36;98209.61;;;25.41;25.50
77893;BME280;67087;50.094;14.338;2023-06-01T03:29:01;98210.41;;;25.45;25.38
77893;BME280;67087;50.094;14.338;2023-06-01T03:31:26;98209.27;;;25.69;25.43
77893;BME280;67087;50.094;14.338;2023-06-01T03:33:51;98210.25;;;25.37;25.59
77893;BME280;67087;50.094;14.338;2023-06-01T03:36:17;98209.23;;;25.75;25.46
77893;BME280;67087;50.094;14.338;2023-06-01T03:38:42;98209.84;;;25.44;25.36
77893;BME280;67087;50.094;14.338;2023-06-01T03:41:07;98209.08;;;25.48;25.50
77893;BME280;67087;50.094;14.338;2023-06-01T03:43:32;98205.06;;;25.67;25.50
77893;BME280;67087;50.094;14.338;2023-06-01T03:45:57;98206.55;;;25.75;25.32
77893;BME280;67087;50.094;14.338;2023-06-01T03:48:22;98206.60;;;25.38;25.31
77893;BME280;67087;50.094;14.338;2023-06-01T03:50:47;98205.12;;;25.43;25.41
77893;BME280;67087;50.094;14.338;2023-06-01T03:53:12;98204.12;;;26.03;25.34
77893;BME280;67087;50.094;14.338;2023-06-01T03:55:38;98201.33;;;24.92;25.45
77893;BME280;67087;50.094;14.338;2023-06-01T03:58:03;98197.68;;;25.52;25.27
77893;BME280;67087;50.094;14.338;2023-06-01T04:00:28;98194.91;;;25.72;25.36
77893;BME280;67087;50.094;14.338;2023-06-01T04:02:55;98197.78;;;25.67;25.43
77893;BME280;67087;50.094;14.338;2023-06-01T04:05:18;98195.66;;;25.41;25.37
77893;BME280;67087;50.094;14.338;2023-06-01T04:07:44;98198.20;;;25.65;25.09
77893;BME280;67087;50.094;14.338;2023-06-01T04:10:09;98198.55;;;25.67;25.16
77893;BME280;67087;50.094;14.338;2023-06-01T04:12:34;98198.53;;;25.79;25.37
77893;BME280;67087;50.094;14.338;2023-06-01T04:14:59;98198.23;;;25.45;25.47
77893;BME280;67087;50.094;14.338;2023-06-01T04:17:24;98199.13;;;25.45;25.43
77893;BME280;67087;50.094;14.338;2023-06-01T04:19:49;98199.54;;;25.63;25.52
77893;BME280;67087;50.094;14.338;2023-06-01T04:22:14;98198.97;;;25.49;25.49
77893;BME280;67087;50.094;14.338;2023-06-01T04:24:39;98194.90;;;25.69;25.58
77893;BME280;67087;50.094;14.338;2023-06-01T04:27:05;98196.80;;;25.41;25.39
77893;BME280;67087;50.094;14.338;2023-06-01T04:29:29;98197.78;;;25.66;25.37
77893;BME280;67087;50.094;14.338;2023-06-01T04:31:55;98198.75;;;25.60;25.38
77893;BME280;67087;50.094;14.338;2023-06-01T04:34:20;98200.61;;;25.71;25.49
77893;BME280;67087;50.094;14.338;2023-06-01T04:36:45;98206.05;;;25.53;25.43
77893;BME280;67087;50.094;14.338;2023-06-01T04:39:10;98208.81;;;25.75;25.51
77893;BME280;67087;50.094;14.338;2023-06-01T04:41:36;98208.85;;;25.52;25.49
77893;BME280;67087;50.094;14.338;2023-06-01T04:44:01;98208.25;;;25.51;25.51
77893;BME280;67087;50.094;14.338;2023-06-01T04:46:26;98200.56;;;25.76;25.49
77893;BME280;67087;50.094;14.338;2023-06-01T04:48:51;98196.66;;;25.51;25.59
77893;BME280;67087;50.094;14.338;2023-06-01T04:51:16;98196.59;;;26.13;22.72
77893;BME280;67087;50.094;14.338;2023-06-01T04:53:41;98195.19;;;25.71;21.43
77893;BME280;67087;50.094;14.338;2023-06-01T04:56:06;98193.75;;;26.01;21.20
77893;BME280;67087;50.094;14.338;2023-06-01T04:58:31;98196.50;;;25.74;21.25
77893;BME280;67087;50.094;14.338;2023-06-01T05:00:56;98201.45;;;25.24;21.33
77893;BME280;67087;50.094;14.338;2023-06-01T05:03:22;98203.14;;;25.42;21.47
77893;BME280;67087;50.094;14.338;2023-06-01T05:05:47;98201.19;;;24.98;21.66
77893;BME280;67087;50.094;14.338;2023-06-01T05:08:12;98199.90;;;24.92;21.91
77893;BME280;67087;50.094;14.338;2023-06-01T05:10:38;98200.33;;;24.18;22.57
77893;BME280;67087;50.094;14.338;2023-06-01T05:13:02;98200.07;;;24.46;22.56
77893;BME280;67087;50.094;14.338;2023-06-01T05:15:28;98199.33;;;24.20;22.69
77893;BME280;67087;50.094;14.338;2023-06-01T05:17:53;98197.02;;;24.21;23.69
77893;BME280;67087;50.094;14.338;2023-06-01T05:20:18;98190.80;;;24.74;23.82
77893;BME280;67087;50.094;14.338;2023-06-01T05:22:43;98189.94;;;24.67;23.67
77893;BME280;67087;50.094;14.338;2023-06-01T05:25:09;98190.90;;;25.23;23.42
77893;BME280;67087;50.094;14.338;2023-06-01T05:27:34;98192.97;;;25.37;23.61
77893;BME280;67087;50.094;14.338;2023-06-01T05:29:59;98192.04;;;25.32;23.82
77893;BME280;67087;50.094;14.338;2023-06-01T05:32:24;98185.99;;;25.61;23.99
77893;BME280;67087;50.094;14.338;2023-06-01T05:34:49;98184.96;;;25.48;23.85
77893;BME280;67087;50.094;14.338;2023-06-01T05:37:14;98184.35;;;25.76;24.22
77893;BME280;67087;50.094;14.338;2023-06-01T05:39:40;98183.06;;;25.61;24.00
77893;BME280;67087;50.094;14.338;2023-06-01T05:42:05;98177.98;;;25.35;24.19
77893;BME280;67087;50.094;14.338;2023-06-01T05:44:31;98180.60;;;25.84;24.64
77893;BME280;67087;50.094;14.338;2023-06-01T05:46:55;98181.14;;;25.17;24.60
77893;BME280;67087;50.094;14.338;2023-06-01T05:49:20;98179.40;;;25.48;24.69
77893;BME280;67087;50.094;14.338;2023-06-01T05:51:45;98177.93;;;25.48;24.47
77893;BME280;67087;50.094;14.338;2023-06-01T05:54:11;98178.64;;;25.87;24.77
77893;BME280;67087;50.094;14.338;2023-06-01T05:56:36;98176.70;;;25.54;24.53
77893;BME280;67087;50.094;14.338;2023-06-01T05:59:01;98174.31;;;25.66;25.17
77893;BME280;67087;50.094;14.338;2023-06-01T06:01:26;98173.53;;;25.66;25.08
77893;BME280;67087;50.094;14.338;2023-06-01T06:03:51;98174.08;;;26.01;24.46
77893;BME280;67087;50.094;14.338;2023-06-01T06:06:17;98177.20;;;26.15;24.76
77893;BME280;67087;50.094;14.338;2023-06-01T06:08:42;98177.82;;;25.50;24.51
77893;BME280;67087;50.094;14.338;2023-06-01T06:11:07;98178.35;;;25.83;25.48
77893;BME280;67087;50.094;14.338;2023-06-01T06:13:32;98178.47;;;26.11;25.31
77893;BME280;67087;50.094;14.338;2023-06-01T06:15:57;98180.10;;;26.34;25.37
77893;BME280;67087;50.094;14.338;2023-06-01T06:18:23;98180.33;;;25.67;25.95
77893;BME280;67087;50.094;14.338;2023-06-01T06:20:48;98183.81;;;25.73;25.73
77893;BME280;67087;50.094;14.338;2023-06-01T06:23:14;98188.17;;;26.32;25.46
77893;BME280;67087;50.094;14.338;2023-06-01T06:25:39;98185.27;;;25.62;25.35
77893;BME280;67087;50.094;14.338;2023-06-01T06:28:04;98182.90;;;26.03;25.47
77893;BME280;67087;50.094;14.338;2023-06-01T06:30:29;98183.61;;;26.22;25.22
77893;BME280;67087;50.094;14.338;2023-06-01T06:32:54;98177.87;;;26.08;25.27
77893;BME280;67087;50.094;14.338;2023-06-01T06:35:20;98177.47;;;25.81;26.11
77893;BME280;67087;50.094;14.338;2023-06-01T06:37:45;98181.40;;;25.92;26.34
77893;BME280;67087;50.094;14.338;2023-06-01T06:40:11;98178.80;;;25.96;26.15
77893;BME280;67087;50.094;14.338;2023-06-01T06:42:36;98179.14;;;25.82;25.83
77893;BME280;67087;50.094;14.338;2023-06-01T06:45:02;98180.20;;;26.12;25.27
77893;BME280;67087;50.094;14.338;2023-06-01T06:47:26;98182.68;;;25.82;25.97
77893;BME280;67087;50.094;14.338;2023-06-01T06:49:52;98181.44;;;26.01;25.45
77893;BME280;67087;50.094;14.338;2023-06-01T06:52:17;98183.35;;;26.12;26.23
77893;BME280;67087;50.094;14.338;2023-06-01T06:54:42;98181.23;;;25.56;26.21
77893;BME280;67087;50.094;14.338;2023-06-01T06:57:08;98179.68;;;26.05;25.87
77893;BME280;67087;50.094;14.338;2023-06-01T06:59:33;98182.30;;;26.54;26.13
77893;BME280;67087;50.094;14.338;2023-06-01T07:01:58;98178.73;;;26.17;26.35
77893;BME280;67087;50.094;14.338;2023-06-01T07:04:23;98179.17;;;26.19;25.50
77893;BME280;67087;50.094;14.338;2023-06-01T07:06:49;98180.60;;;26.02;25.90
77893;BME280;67087;50.094;14.338;2023-06-01T07:09:14;98176.75;;;26.44;25.96
77893;BME280;67087;50.094;14.338;2023-06-01T07:11:41;98177.94;;;26.30;27.14
77893;BME280;67087;50.094;14.338;2023-06-01T07:14:04;98180.25;;;26.47;25.81
77893;BME280;67087;50.094;14.338;2023-06-01T07:16:29;98178.31;;;26.01;27.10
77893;BME280;67087;50.094;14.338;2023-06-01T07:18:55;98174.64;;;26.62;25.88
77893;BME280;67087;50.094;14.338;2023-06-01T07:21:20;98174.93;;;26.84;23.98
77893;BME280;67087;50.094;14.338;2023-06-01T07:23:45;98181.10;;;26.29;26.11
77893;BME280;67087;50.094;14.338;2023-06-01T07:26:10;98182.00;;;26.26;26.44
77893;BME280;67087;50.094;14.338;2023-06-01T07:28:36;98178.71;;;26.40;25.27
77893;BME280;67087;50.094;14.338;2023-06-01T07:31:00;98175.12;;;26.94;24.17
77893;BME280;67087;50.094;14.338;2023-06-01T07:33:26;98177.39;;;26.52;24.86
77893;BME280;67087;50.094;14.338;2023-06-01T07:35:51;98174.69;;;26.00;24.38
77893;BME280;67087;50.094;14.338;2023-06-01T07:38:16;98175.47;;;26.44;24.13
77893;BME280;67087;50.094;14.338;2023-06-01T07:40:42;98170.94;;;25.98;24.15
77893;BME280;67087;50.094;14.338;2023-06-01T07:43:07;98168.74;;;26.32;23.47
77893;BME280;67087;50.094;14.338;2023-06-01T07:45:32;98165.73;;;26.17;23.94
77893;BME280;67087;50.094;14.338;2023-06-01T07:47:57;98161.36;;;26.59;23.79
77893;BME280;67087;50.094;14.338;2023-06-01T07:50:22;98155.49;;;26.40;23.43
77893;BME280;67087;50.094;14.338;2023-06-01T07:52:47;98161.01;;;25.72;24.24
77893;BME280;67087;50.094;14.338;2023-06-01T07:55:12;98159.23;;;26.11;23.28
77893;BME280;67087;50.094;14.338;2023-06-01T07:57:38;98160.75;;;25.59;23.32
77893;BME280;67087;50.094;14.338;2023-06-01T08:00:03;98162.44;;;26.15;23.16
77893;BME280;67087;50.094;14.338;2023-06-01T08:02:28;98157.17;;;26.28;22.79
77893;BME280;67087;50.094;14.338;2023-06-01T08:04:53;98158.03;;;26.02;21.88
77893;BME280;67087;50.094;14.338;2023-06-01T08:07:18;98154.29;;;26.66;21.72
77893;BME280;67087;50.094;14.338;2023-06-01T08:09:43;98156.85;;;26.22;21.06
77893;BME280;67087;50.094;14.338;2023-06-01T08:12:08;98157.44;;;26.36;21.76
77893;BME280;67087;50.094;14.338;2023-06-01T08:14:34;98154.60;;;26.09;22.43
77893;BME280;67087;50.094;14.338;2023-06-01T08:17:01;98140.16;;;26.72;21.41
77893;BME280;67087;50.094;14.338;2023-06-01T08:19:25;98146.28;;;26.76;19.31
77893;BME280;67087;50.094;14.338;2023-06-01T08:21:50;98147.27;;;26.84;19.39
77893;BME280;67087;50.094;14.338;2023-06-01T08:24:15;98147.14;;;26.11;19.72
77893;BME280;67087;50.094;14.338;2023-06-01T08:26:40;98141.35;;;26.48;19.34
77893;BME280;67087;50.094;14.338;2023-06-01T08:29:05;98141.60;;;26.47;18.57
77893;BME280;67087;50.094;14.338;2023-06-01T08:31:31;98141.71;;;26.25;18.77
77893;BME280;67087;50.094;14.338;2023-06-01T08:33:56;98146.45;;;26.14;19.64
77893;BME280;67087;50.094;14.338;2023-06-01T08:36:21;98140.18;;;26.76;18.97
77893;BME280;67087;50.094;14.338;2023-06-01T08:38:48;98145.13;;;25.92;19.47
77893;BME280;67087;50.094;14.338;2023-06-01T08:41:17;98142.73;;;26.06;19.53
77893;BME280;67087;50.094;14.338;2023-06-01T08:43:38;98135.88;;;26.38;18.80
77893;BME280;67087;50.094;14.338;2023-06-01T08:46:02;98131.07;;;26.80;18.93
77893;BME280;67087;50.094;14.338;2023-06-01T08:48:27;98134.71;;;26.70;19.32
77893;BME280;67087;50.094;14.338;2023-06-01T08:50:53;98128.48;;;26.55;19.53
77893;BME280;67087;50.094;14.338;2023-06-01T08:53:18;98138.08;;;26.14;19.86
77893;BME280;67087;50.094;14.338;2023-06-01T08:55:43;98137.41;;;25.80;19.70
77893;BME280;67087;50.094;14.338;2023-06-01T08:58:08;98136.99;;;26.25;19.57
77893;BME280;67087;50.094;14.338;2023-06-01T09:00:34;98132.25;;;26.45;19.56
77893;BME280;67087;50.094;14.338;2023-06-01T09:02:59;98133.01;;;25.86;20.10
77893;BME280;67087;50.094;14.338;2023-06-01T09:05:23;98130.00;;;26.26;19.88
77893;BME280;67087;50.094;14.338;2023-06-01T09:07:48;98127.27;;;26.03;20.07
77893;BME280;67087;50.094;14.338;2023-06-01T09:10:13;98123.65;;;26.75;19.41
77893;BME280;67087;50.094;14.338;2023-06-01T09:15:09;98125.28;;;25.49;20.33
77893;BME280;67087;50.094;14.338;2023-06-01T09:17:29;98123.07;;;25.25;20.58
77893;BME280;67087;50.094;14.338;2023-06-01T09:19:55;98120.64;;;25.48;20.25
77893;BME280;67087;50.094;14.338;2023-06-01T09:22:20;98119.74;;;25.59;20.28
77893;BME280;67087;50.094;14.338;2023-06-01T09:24:55;98122.22;;;25.58;20.21
77893;BME280;67087;50.094;14.338;2023-06-01T09:27:10;98119.59;;;25.77;20.02
77893;BME280;67087;50.094;14.338;2023-06-01T09:29:36;98120.25;;;25.91;19.71
77893;BME280;67087;50.094;14.338;2023-06-01T09:32:01;98116.80;;;25.27;20.38
77893;BME280;67087;50.094;14.338;2023-06-01T09:34:26;98114.20;;;25.79;20.13
77893;BME280;67087;50.094;14.338;2023-06-01T09:36:52;98113.65;;;25.69;20.40
77893;BME280;67087;50.094;14.338;2023-06-01T09:39:18;98112.33;;;26.48;19.59
77893;BME280;67087;50.094;14.338;2023-06-01T09:41:46;98109.55;;;26.18;19.16
77893;BME280;67087;50.094;14.338;2023-06-01T09:44:06;98107.96;;;26.12;19.25
77893;BME280;67087;50.094;14.338;2023-06-01T09:46:31;98111.74;;;26.21;19.49
77893;BME280;67087;50.094;14.338;2023-06-01T09:49:04;98103.48;;;26.37;19.21
77893;BME280;67087;50.094;14.338;2023-06-01T09:51:23;98106.02;;;26.03;19.00
77893;BME280;67087;50.094;14.338;2023-06-01T09:53:47;98105.92;;;25.57;19.79
77893;BME280;67087;50.094;14.338;2023-06-01T09:56:12;98099.70;;;26.07;19.46
77893;BME280;67087;50.094;14.338;2023-06-01T09:58:38;98103.79;;;25.15;19.80
77893;BME280;67087;50.094;14.338;2023-06-01T10:01:02;98092.84;;;26.17;19.16
77893;BME280;67087;50.094;14.338;2023-06-01T10:03:28;98089.40;;;26.05;19.44
77893;BME280;67087;50.094;14.338;2023-06-01T10:05:53;98090.73;;;25.89;19.47
77893;BME280;67087;50.094;14.338;2023-06-01T10:08:18;98091.86;;;25.45;19.43
77893;BME280;67087;50.094;14.338;2023-06-01T10:10:45;98086.99;;;25.88;18.85
77893;BME280;67087;50.094;14.338;2023-06-01T10:13:08;98090.46;;;25.86;19.33
77893;BME280;67087;50.094;14.338;2023-06-01T10:15:34;98091.76;;;25.99;19.05
77893;BME280;67087;50.094;14.338;2023-06-01T10:17:59;98084.13;;;25.56;19.46
77893;BME280;67087;50.094;14.338;2023-06-01T10:20:24;98079.76;;;26.16;18.68
77893;BME280;67087;50.094;14.338;2023-06-01T10:22:49;98074.67;;;25.85;18.52
77893;BME280;67087;50.094;14.338;2023-06-01T10:25:16;98078.94;;;25.43;19.00
77893;BME280;67087;50.094;14.338;2023-06-01T10:27:43;98080.74;;;25.50;19.08
77893;BME280;67087;50.094;14.338;2023-06-01T10:30:07;98081.63;;;25.40;19.51
77893;BME280;67087;50.094;14.338;2023-06-01T10:32:44;98076.63;;;26.49;18.71
77893;BME280;67087;50.094;14.338;2023-06-01T10:34:55;98077.92;;;25.52;19.47
77893;BME280;67087;50.094;14.338;2023-06-01T10:37:20;98071.96;;;26.15;18.92
77893;BME280;67087;50.094;14.338;2023-06-01T10:39:45;98073.83;;;25.34;19.29
77893;BME280;67087;50.094;14.338;2023-06-01T10:44:45;98066.40;;;25.87;18.99
77893;BME280;67087;50.094;14.338;2023-06-01T10:47:00;98067.54;;;26.14;18.71
77893;BME280;67087;50.094;14.338;2023-06-01T10:54:27;98062.92;;;25.75;19.42
77893;BME280;67087;50.094;14.338;2023-06-01T10:56:41;98059.96;;;25.39;19.01
77893;BME280;67087;50.094;14.338;2023-06-01T10:59:11;98059.98;;;26.59;18.46
77893;BME280;67087;50.094;14.338;2023-06-01T11:01:32;98060.88;;;25.98;18.84
77893;BME280;67087;50.094;14.338;2023-06-01T11:03:57;98061.44;;;25.59;18.05
77893;BME280;67087;50.094;14.338;2023-06-01T11:06:24;98057.48;;;26.67;17.67
77893;BME280;67087;50.094;14.338;2023-06-01T11:08:53;98059.07;;;26.52;17.49
77893;BME280;67087;50.094;14.338;2023-06-01T11:11:12;98056.14;;;26.45;17.13
77893;BME280;67087;50.094;14.338;2023-06-01T11:13:38;98055.04;;;26.20;17.32
77893;BME280;67087;50.094;14.338;2023-06-01T11:18:42;98047.52;;;26.44;17.58
77893;BME280;67087;50.094;14.338;2023-06-01T11:20:53;98047.24;;;26.01;17.82
77893;BME280;67087;50.094;14.338;2023-06-01T11:23:18;98044.96;;;26.45;17.63
77893;BME280;67087;50.094;14.338;2023-06-01T11:25:43;98041.86;;;26.07;17.44
77893;BME280;67087;50.094;14.338;2023-06-01T11:28:08;98039.21;;;26.39;17.31
77893;BME280;67087;50.094;14.338;2023-06-01T11:30:35;98033.22;;;25.60;17.57
77893;BME280;67087;50.094;14.338;2023-06-01T11:32:59;98032.19;;;25.76;17.63
77893;BME280;67087;50.094;14.338;2023-06-01T11:35:24;98024.90;;;26.06;17.36
77893;BME280;67087;50.094;14.338;2023-06-01T11:37:54;98024.88;;;25.96;17.16
77893;BME280;67087;50.094;14.338;2023-06-01T11:40:14;98024.31;;;26.07;17.31
77893;BME280;67087;50.094;14.338;2023-06-01T11:42:39;98020.33;;;25.01;17.70
77893;BME280;67087;50.094;14.338;2023-06-01T11:45:06;98019.42;;;26.03;17.52
77893;BME280;67087;50.094;14.338;2023-06-01T11:47:30;98015.65;;;26.13;17.36
77893;BME280;67087;50.094;14.338;2023-06-01T11:49:55;98014.56;;;25.51;17.61
77893;BME280;67087;50.094;14.338;2023-06-01T11:52:20;98010.56;;;25.79;17.65
77893;BME280;67087;50.094;14.338;2023-06-01T11:54:46;98010.54;;;25.45;17.83
77893;BME280;67087;50.094;14.338;2023-06-01T11:57:10;98005.27;;;25.79;18.09
77893;BME280;67087;50.094;14.338;2023-06-01T11:59:37;98006.45;;;26.42;17.54
77893;BME280;67087;50.094;14.338;2023-06-01T12:02:01;98002.95;;;25.52;18.14
77893;BME280;67087;50.094;14.338;2023-06-01T12:04:26;98000.42;;;25.60;18.56
77893;BME280;67087;50.094;14.338;2023-06-01T12:06:51;98000.34;;;25.96;18.05
77893;BME280;67087;50.094;14.338;2023-06-01T12:09:16;97998.56;;;26.20;18.06
77893;BME280;67087;50.094;14.338;2023-06-01T12:11:42;97995.35;;;25.37;18.55
77893;BME280;67087;50.094;14.338;2023-06-01T12:14:07;97995.88;;;25.92;18.81
77893;BME280;67087;50.094;14.338;2023-06-01T12:18:57;97992.25;;;25.82;18.67
77893;BME280;67087;50.094;14.338;2023-06-01T12:21:22;97989.80;;;26.18;18.50
77893;BME280;67087;50.094;14.338;2023-06-01T12:23:50;97987.24;;;25.63;18.55
77893;BME280;67087;50.094;14.338;2023-06-01T12:26:12;97983.57;;;25.80;18.93
77893;BME280;67087;50.094;14.338;2023-06-01T12:28:49;97986.30;;;25.45;18.85
77893;BME280;67087;50.094;14.338;2023-06-01T12:31:08;97979.96;;;25.89;18.96
77893;BME280;67087;50.094;14.338;2023-06-01T12:33:32;97978.39;;;25.76;19.41
77893;BME280;67087;50.094;14.338;2023-06-01T12:35:53;97976.16;;;25.82;19.50
77893;BME280;67087;50.094;14.338;2023-06-01T12:38:18;97973.54;;;25.60;19.67
77893;BME280;67087;50.094;14.338;2023-06-01T12:40:43;97970.20;;;25.53;19.45
77893;BME280;67087;50.094;14.338;2023-06-01T12:43:17;97967.93;;;25.89;19.27
77893;BME280;67087;50.094;14.338;2023-06-01T12:45:36;97963.48;;;25.53;19.47
77893;BME280;67087;50.094;14.338;2023-06-01T12:47:59;97957.68;;;25.55;19.82
77893;BME280;67087;50.094;14.338;2023-06-01T12:50:24;97957.78;;;25.69;20.15
77893;BME280;67087;50.094;14.338;2023-06-01T12:52:49;97953.46;;;25.79;19.84
77893;BME280;67087;50.094;14.338;2023-06-01T12:55:15;97949.72;;;25.95;19.80
77893;BME280;67087;50.094;14.338;2023-06-01T12:57:40;97948.86;;;24.92;19.93